createdAt,value
2018-11-06T00:00:07.541Z,21.8
2018-11-06T00:00:57.602Z,21.8
2018-11-06T00:01:48.500Z,21.8
2018-11-06T00:02:37.936Z,21.8
2018-11-06T00:03:28.076Z,21.7
2018-11-06T00:04:18.083Z,21.8
2018-11-06T00:05:08.167Z,21.7
2018-11-06T00:05:57.276Z,21.7
2018-11-06T00:06:47.811Z,21.8
2018-11-06T00:25:05.045Z,21.7
2018-11-06T00:25:55.462Z,21.7
2018-11-06T00:26:45.202Z,21.7
2018-11-06T00:27:34.793Z,21.7
2018-11-06T00:28:24.767Z,21.7
2018-11-06T00:29:14.272Z,21.7
2018-11-06T00:30:05.130Z,21.6
2018-11-06T00:30:55.237Z,21.7
2018-11-06T00:31:44.815Z,21.7
2018-11-06T00:32:35.604Z,21.6
2018-11-06T00:33:24.563Z,21.7
2018-11-06T00:34:15.751Z,21.6
2018-11-06T00:35:05.816Z,21.7
2018-11-06T00:35:55.574Z,21.6
2018-11-06T00:36:45.917Z,21.7
2018-11-06T00:37:35.719Z,21.6
2018-11-06T00:38:24.909Z,21.6
2018-11-06T00:39:15.566Z,21.7
2018-11-06T00:40:05.054Z,21.6
2018-11-06T00:40:55.762Z,21.7
2018-11-06T00:41:46.009Z,21.6
2018-11-06T00:42:35.594Z,21.7
2018-11-06T00:43:25.671Z,21.6
2018-11-06T00:44:16.204Z,21.6
2018-11-06T00:45:05.788Z,21.6
2018-11-06T00:45:56.263Z,21.6
2018-11-06T00:46:45.120Z,21.6
2018-11-06T00:47:36.196Z,21.6
2018-11-06T00:48:26.328Z,21.6
2018-11-06T00:49:16.558Z,21.6
2018-11-06T00:50:06.643Z,21.6
2018-11-06T00:50:56.918Z,21.6
2018-11-06T00:51:46.753Z,21.6
2018-11-06T00:52:35.361Z,21.6
2018-11-06T00:53:26.320Z,21.6
2018-11-06T00:54:16.352Z,21.6
2018-11-06T00:55:06.696Z,21.6
2018-11-06T00:55:57.065Z,21.6
2018-11-06T00:56:46.520Z,21.6
2018-11-06T00:57:37.211Z,21.6
2018-11-06T00:58:27.000Z,21.6
2018-11-06T00:59:17.117Z,21.6
2018-11-06T01:00:07.152Z,21.6
2018-11-06T01:00:56.911Z,21.6
2018-11-06T01:01:47.550Z,21.6
2018-11-06T01:02:36.962Z,21.6
2018-11-06T01:03:27.625Z,21.6
2018-11-06T01:04:17.378Z,21.6
2018-11-06T01:05:07.723Z,21.6
2018-11-06T01:05:57.594Z,21.6
2018-11-06T01:06:47.332Z,21.6
2018-11-06T01:07:37.650Z,21.6
2018-11-06T01:08:28.237Z,21.6
2018-11-06T01:09:17.131Z,21.6
2018-11-06T01:10:08.094Z,21.6
2018-11-06T01:10:57.662Z,21.6
2018-11-06T01:11:48.197Z,21.6
2018-11-06T01:12:38.504Z,21.6
2018-11-06T01:13:28.320Z,21.6
2018-11-06T01:14:17.841Z,21.6
2018-11-06T01:15:08.463Z,21.6
2018-11-06T01:15:58.194Z,21.6
2018-11-06T01:16:48.582Z,21.6
2018-11-06T01:17:37.836Z,21.6
2018-11-06T01:18:28.189Z,21.6
2018-11-06T01:19:18.464Z,21.6
2018-11-06T01:20:08.051Z,21.6
2018-11-06T01:20:58.583Z,21.6
2018-11-06T01:21:48.919Z,21.6
2018-11-06T01:22:38.689Z,21.6
2018-11-06T01:23:28.766Z,21.6
2018-11-06T01:24:18.338Z,21.6
2018-11-06T01:25:08.576Z,21.6
2018-11-06T01:25:58.758Z,21.6
2018-11-06T01:26:48.998Z,21.6
2018-11-06T01:27:39.311Z,21.6
2018-11-06T01:28:29.421Z,21.6
2018-11-06T01:29:18.881Z,21.6
2018-11-06T01:30:09.215Z,21.6
2018-11-06T01:30:59.015Z,21.5
2018-11-06T01:31:49.374Z,21.6
2018-11-06T01:32:39.778Z,21.6
2018-11-06T01:33:30.300Z,21.6
2018-11-06T01:34:19.841Z,21.5
2018-11-06T01:35:09.643Z,21.5
2018-11-06T01:35:59.985Z,21.6
2018-11-06T01:36:49.732Z,21.5
2018-11-06T01:37:39.818Z,21.5
2018-11-06T01:38:30.655Z,21.6
2018-11-06T01:39:19.432Z,21.6
2018-11-06T01:40:10.318Z,21.5
2018-11-06T01:40:59.528Z,21.5
2018-11-06T01:41:50.355Z,21.6
2018-11-06T01:42:39.971Z,21.5
2018-11-06T01:43:31.282Z,21.5
2018-11-06T01:44:20.128Z,21.5
2018-11-06T01:45:10.635Z,21.5
2018-11-06T01:46:00.912Z,21.5
2018-11-06T01:46:50.740Z,21.5
2018-11-06T01:47:40.512Z,21.5
2018-11-06T01:48:30.658Z,21.5
2018-11-06T01:49:20.660Z,21.5
2018-11-06T01:50:10.401Z,21.5
2018-11-06T01:51:01.044Z,21.5
2018-11-06T01:51:51.074Z,21.5
2018-11-06T01:52:40.889Z,21.5
2018-11-06T01:53:30.979Z,21.5
2018-11-06T01:54:21.575Z,21.5
2018-11-06T01:55:10.744Z,21.5
2018-11-06T01:56:01.902Z,21.5
2018-11-06T01:56:50.899Z,21.5
2018-11-06T01:57:40.844Z,21.5
2018-11-06T01:58:30.744Z,21.5
2018-11-06T01:59:21.354Z,21.5
2018-11-06T02:00:11.424Z,21.5
2018-11-06T02:01:01.472Z,21.5
2018-11-06T02:01:52.101Z,21.4
2018-11-06T02:02:41.352Z,21.5
2018-11-06T02:03:31.411Z,21.5
2018-11-06T02:04:21.459Z,21.5
2018-11-06T02:05:11.496Z,21.4
2018-11-06T02:06:02.094Z,21.5
2018-11-06T02:06:52.201Z,21.5
2018-11-06T02:07:42.298Z,21.4
2018-11-06T02:08:31.761Z,21.5
2018-11-06T02:09:22.084Z,21.4
2018-11-06T02:10:12.151Z,21.4
2018-11-06T02:11:01.924Z,21.4
2018-11-06T02:11:51.796Z,21.4
2018-11-06T02:12:42.321Z,21.4
2018-11-06T02:13:32.380Z,21.4
2018-11-06T02:14:22.744Z,21.4
2018-11-06T02:15:12.258Z,21.4
2018-11-06T02:16:02.298Z,21.4
2018-11-06T02:16:52.043Z,21.4
2018-11-06T02:17:42.775Z,21.4
2018-11-06T02:18:33.015Z,21.4
2018-11-06T02:19:23.407Z,21.4
2018-11-06T02:20:13.180Z,21.4
2018-11-06T02:21:03.221Z,21.4
2018-11-06T02:21:53.066Z,21.4
2018-11-06T02:22:43.638Z,21.4
2018-11-06T02:23:32.265Z,21.4
2018-11-06T02:24:23.162Z,21.4
2018-11-06T02:25:13.529Z,21.4
2018-11-06T02:26:02.740Z,21.4
2018-11-06T02:26:53.069Z,21.4
2018-11-06T02:27:44.007Z,21.4
2018-11-06T02:28:33.546Z,21.4
2018-11-06T02:29:23.782Z,21.4
2018-11-06T02:30:14.160Z,21.4
2018-11-06T02:31:03.178Z,21.4
2018-11-06T02:31:54.285Z,21.4
2018-11-06T02:32:43.815Z,21.4
2018-11-06T02:33:33.381Z,21.4
2018-11-06T02:34:23.905Z,21.4
2018-11-06T02:35:14.577Z,21.4
2018-11-06T02:36:04.315Z,21.4
2018-11-06T02:36:54.380Z,21.4
2018-11-06T02:37:43.876Z,21.4
2018-11-06T02:38:34.204Z,21.4
2018-11-06T02:39:24.257Z,21.4
2018-11-06T02:40:14.317Z,21.4
2018-11-06T02:41:04.487Z,21.4
2018-11-06T02:41:54.451Z,21.4
2018-11-06T02:42:44.853Z,21.4
2018-11-06T02:43:34.556Z,21.4
2018-11-06T02:44:24.916Z,21.4
2018-11-06T02:45:14.699Z,21.4
2018-11-06T02:46:05.046Z,21.4
2018-11-06T02:46:54.782Z,21.4
2018-11-06T02:47:44.880Z,21.4
2018-11-06T02:48:34.931Z,21.4
2018-11-06T02:49:24.706Z,21.4
2018-11-06T02:50:14.889Z,21.4
2018-11-06T02:51:04.811Z,21.4
2018-11-06T02:51:55.496Z,21.4
2018-11-06T02:52:45.533Z,21.4
2018-11-06T02:53:35.596Z,21.4
2018-11-06T02:54:25.441Z,21.4
2018-11-06T02:55:15.996Z,21.4
2018-11-06T02:56:06.341Z,21.4
2018-11-06T02:56:56.101Z,21.4
2018-11-06T02:57:46.128Z,21.4
2018-11-06T02:58:35.943Z,21.4
2018-11-06T02:59:25.717Z,21.4
2018-11-06T03:00:16.314Z,21.4
2018-11-06T03:01:06.098Z,21.4
2018-11-06T03:01:55.666Z,21.4
2018-11-06T03:02:46.338Z,21.4
2018-11-06T03:03:35.815Z,21.4
2018-11-06T03:04:25.292Z,21.4
2018-11-06T03:05:16.665Z,21.4
2018-11-06T03:06:06.460Z,21.4
2018-11-06T03:06:57.049Z,21.4
2018-11-06T03:07:47.085Z,21.3
2018-11-06T03:08:36.108Z,21.4
2018-11-06T03:09:26.990Z,21.3
2018-11-06T03:10:17.042Z,21.4
2018-11-06T03:11:06.566Z,21.4
2018-11-06T03:11:56.906Z,21.3
2018-11-06T03:12:46.696Z,21.4
2018-11-06T03:13:36.731Z,21.3
2018-11-06T03:14:26.412Z,21.3
2018-11-06T03:15:16.894Z,21.3
2018-11-06T03:16:06.731Z,21.3
2018-11-06T03:16:56.625Z,21.3
2018-11-06T03:17:47.350Z,21.3
2018-11-06T03:18:37.727Z,21.3
2018-11-06T03:19:27.470Z,21.3
2018-11-06T03:20:17.777Z,21.3
2018-11-06T03:21:07.362Z,21.3
2018-11-06T03:21:57.623Z,21.3
2018-11-06T03:22:47.731Z,21.3
2018-11-06T03:23:37.992Z,21.3
2018-11-06T03:24:27.807Z,21.3
2018-11-06T03:25:18.179Z,21.3
2018-11-06T03:26:07.924Z,21.3
2018-11-06T03:26:57.734Z,21.3
2018-11-06T03:27:47.755Z,21.3
2018-11-06T03:28:38.367Z,21.3
2018-11-06T03:29:27.871Z,21.3
2018-11-06T03:30:18.233Z,21.3
2018-11-06T03:31:08.044Z,21.3
2018-11-06T03:31:58.062Z,21.3
2018-11-06T03:32:48.451Z,21.3
2018-11-06T03:33:39.003Z,21.3
2018-11-06T03:34:28.029Z,21.3
2018-11-06T03:35:18.033Z,21.3
2018-11-06T03:36:08.608Z,21.3
2018-11-06T03:36:58.702Z,21.3
2018-11-06T03:37:48.490Z,21.3
2018-11-06T03:38:38.843Z,21.3
2018-11-06T03:39:28.783Z,21.3
2018-11-06T03:40:18.191Z,21.3
2018-11-06T03:41:08.831Z,21.3
2018-11-06T03:41:59.138Z,21.3
2018-11-06T03:42:48.856Z,21.3
2018-11-06T03:43:38.721Z,21.3
2018-11-06T03:44:28.484Z,21.3
2018-11-06T03:45:19.331Z,21.3
2018-11-06T03:46:09.628Z,21.3
2018-11-06T03:46:59.153Z,21.3
2018-11-06T03:47:49.465Z,21.3
2018-11-06T03:48:39.552Z,21.3
2018-11-06T03:49:29.880Z,21.3
2018-11-06T03:50:19.193Z,21.3
2018-11-06T03:51:08.948Z,21.3
2018-11-06T03:51:59.812Z,21.3
2018-11-06T03:52:49.863Z,21.3
2018-11-06T03:53:39.355Z,21.3
2018-11-06T03:54:29.965Z,21.3
2018-11-06T03:55:19.403Z,21.3
2018-11-06T03:56:09.809Z,21.3
2018-11-06T03:57:00.410Z,21.3
2018-11-06T03:57:49.943Z,21.3
2018-11-06T03:58:39.799Z,21.3
2018-11-06T03:59:30.100Z,21.3
2018-11-06T04:00:19.898Z,21.3
2018-11-06T04:01:09.957Z,21.3
2018-11-06T04:02:00.012Z,21.3
2018-11-06T04:02:49.816Z,21.3
2018-11-06T04:03:39.844Z,21.3
2018-11-06T04:04:30.467Z,21.3
2018-11-06T04:05:20.748Z,21.3
2018-11-06T04:06:10.557Z,21.3
2018-11-06T04:07:00.604Z,21.3
2018-11-06T04:07:50.647Z,21.3
2018-11-06T04:08:40.706Z,21.3
2018-11-06T04:09:30.755Z,21.3
2018-11-06T04:10:21.409Z,21.3
2018-11-06T04:11:11.733Z,21.3
2018-11-06T04:12:01.490Z,21.3
2018-11-06T04:12:50.734Z,21.3
2018-11-06T04:13:41.081Z,21.3
2018-11-06T04:14:30.976Z,21.3
2018-11-06T04:15:21.775Z,21.2
2018-11-06T04:16:11.851Z,21.3
2018-11-06T04:17:01.569Z,21.3
2018-11-06T04:17:51.988Z,21.2
2018-11-06T04:18:41.195Z,21.2
2018-11-06T04:19:30.921Z,21.3
2018-11-06T04:20:21.591Z,21.2
2018-11-06T04:21:11.641Z,21.3
2018-11-06T04:22:02.259Z,21.3
2018-11-06T04:22:52.024Z,21.3
2018-11-06T04:23:42.104Z,21.3
2018-11-06T04:24:31.873Z,21.3
2018-11-06T04:25:23.096Z,21.3
2018-11-06T04:26:11.823Z,21.3
2018-11-06T04:27:01.771Z,21.3
2018-11-06T04:27:51.904Z,21.3
2018-11-06T04:28:41.951Z,21.3
2018-11-06T04:29:32.506Z,21.3
2018-11-06T04:30:23.142Z,21.3
2018-11-06T04:31:12.353Z,21.3
2018-11-06T04:32:02.416Z,21.3
2018-11-06T04:32:53.065Z,21.3
2018-11-06T04:33:42.243Z,21.3
2018-11-06T04:34:32.866Z,21.3
2018-11-06T04:35:22.166Z,21.3
2018-11-06T04:36:13.029Z,21.3
2018-11-06T04:54:14.455Z,21.3
2018-11-06T04:55:04.819Z,21.3
2018-11-06T04:55:53.703Z,21.3
2018-11-06T04:56:44.923Z,21.3
2018-11-06T04:57:34.720Z,21.3
2018-11-06T04:58:24.999Z,21.3
2018-11-06T04:59:15.402Z,21.3
2018-11-06T05:00:04.685Z,21.3
2018-11-06T05:00:54.761Z,21.3
2018-11-06T05:01:45.084Z,21.3
2018-11-06T05:02:34.064Z,21.3
2018-11-06T05:03:25.137Z,21.2
2018-11-06T05:04:14.042Z,21.3
2018-11-06T05:05:05.249Z,21.3
2018-11-06T05:05:55.089Z,21.3
2018-11-06T05:06:45.756Z,21.3
2018-11-06T05:07:36.219Z,21.3
2018-11-06T05:08:25.539Z,21.3
2018-11-06T05:09:15.331Z,21.3
2018-11-06T05:10:06.201Z,21.3
2018-11-06T05:10:56.148Z,21.3
2018-11-06T05:11:45.476Z,21.3
2018-11-06T05:12:35.295Z,21.3
2018-11-06T05:13:40.753Z,21.3
2018-11-06T05:14:16.495Z,21.3
2018-11-06T05:15:21.076Z,21.3
2018-11-06T05:15:55.781Z,21.3
2018-11-06T05:16:46.106Z,21.3
2018-11-06T05:17:36.116Z,21.3
2018-11-06T05:18:26.508Z,21.3
2018-11-06T05:19:16.353Z,21.3
2018-11-06T05:20:06.301Z,21.3
2018-11-06T05:20:56.613Z,21.3
2018-11-06T05:21:46.376Z,21.3
2018-11-06T05:22:36.303Z,21.3
2018-11-06T05:23:26.952Z,21.3
2018-11-06T05:24:16.424Z,21.3
2018-11-06T05:25:07.220Z,21.3
2018-11-06T05:25:56.518Z,21.3
2018-11-06T05:26:46.576Z,21.3
2018-11-06T05:27:37.346Z,21.3
2018-11-06T05:28:27.088Z,21.3
2018-11-06T05:29:16.775Z,21.2
2018-11-06T05:30:06.642Z,21.3
2018-11-06T05:30:56.720Z,21.3
2018-11-06T05:31:47.152Z,21.3
2018-11-06T05:32:36.608Z,21.3
2018-11-06T05:33:27.200Z,21.2
2018-11-06T09:08:43.722Z,63.6
2018-11-06T09:09:33.141Z,63.7
2018-11-06T09:10:23.923Z,63.8
2018-11-06T09:11:13.622Z,63.9
2018-11-06T09:12:03.504Z,64
2018-11-06T09:12:53.867Z,64.1
2018-11-06T09:13:43.522Z,64.3
2018-11-06T09:14:33.997Z,64.3
2018-11-06T09:15:23.757Z,64.4
2018-11-06T09:16:13.782Z,64.4
2018-11-06T09:17:04.603Z,64.6
2018-11-06T09:17:54.213Z,64.6
2018-11-06T09:18:43.606Z,64.8
2018-11-06T09:19:34.019Z,64.8
2018-11-06T09:20:23.696Z,64.9
2018-11-06T09:21:13.783Z,65.1
2018-11-06T09:22:04.413Z,65.1
2018-11-06T09:22:54.167Z,65.3
2018-11-06T09:23:44.761Z,65.3
2018-11-06T09:24:34.358Z,65.3
2018-11-06T09:25:24.636Z,65.4
2018-11-06T09:26:14.198Z,65.4
2018-11-06T09:27:04.271Z,65.5
2018-11-06T09:27:54.903Z,65.6
2018-11-06T09:28:44.973Z,65.6
2018-11-06T09:29:34.926Z,65.7
2018-11-06T09:30:25.012Z,65.8
2018-11-06T09:31:14.598Z,65.8
2018-11-06T09:32:04.640Z,65.9
2018-11-06T09:32:55.298Z,65.9
2018-11-06T09:33:44.648Z,66
2018-11-06T09:34:35.259Z,66.1
2018-11-06T09:35:25.430Z,66.2
2018-11-06T09:36:15.137Z,66.3
2018-11-06T09:37:05.768Z,66.3
2018-11-06T09:37:55.085Z,66.4
2018-11-06T09:38:45.600Z,66.4
2018-11-06T09:39:35.727Z,66.4
2018-11-06T09:40:25.710Z,66.5
2018-11-06T09:41:15.685Z,66.6
2018-11-06T09:42:05.621Z,66.6
2018-11-06T09:42:56.178Z,66.7
2018-11-06T09:43:45.703Z,66.8
2018-11-06T09:44:35.394Z,66.8
2018-11-06T09:45:25.513Z,66.9
2018-11-06T09:46:15.662Z,66.9
2018-11-06T09:47:05.653Z,66.9
2018-11-06T09:47:55.992Z,67
2018-11-06T09:48:46.820Z,67.1
2018-11-06T09:49:35.907Z,67.2
2018-11-06T09:50:25.675Z,67.2
2018-11-06T09:51:15.952Z,67.3
2018-11-06T09:52:07.775Z,67.4
2018-11-06T09:52:56.047Z,67.4
2018-11-06T09:53:46.414Z,67.4
2018-11-06T09:54:36.775Z,67.5
2018-11-06T09:55:26.354Z,67.6
2018-11-06T09:56:16.301Z,67.6
2018-11-06T09:57:06.936Z,67.6
2018-11-06T09:57:57.018Z,67.7
2018-11-06T09:58:46.277Z,67.8
2018-11-06T09:59:37.146Z,67.8
2018-11-06T10:00:27.019Z,67.8
2018-11-06T10:01:17.349Z,67.9
2018-11-06T10:02:06.926Z,67.9
2018-11-06T10:02:57.906Z,67.9
2018-11-06T10:03:47.434Z,67.9
2018-11-06T10:04:36.803Z,67.9
2018-11-06T10:05:26.951Z,68
2018-11-06T10:06:18.879Z,68
2018-11-06T10:07:09.946Z,68.1
2018-11-06T10:07:58.148Z,68.1
2018-11-06T10:08:47.486Z,68.1
2018-11-06T10:09:37.869Z,68.1
2018-11-06T10:10:27.696Z,68.2
2018-11-06T10:11:18.017Z,68.2
2018-11-06T10:12:07.448Z,68.3
2018-11-06T10:12:58.111Z,68.3
2018-11-06T10:13:48.698Z,68.3
2018-11-06T10:14:37.726Z,68.3
2018-11-06T10:15:28.784Z,68.3
2018-11-06T10:16:18.313Z,68.2
2018-11-06T10:17:08.013Z,68.3
2018-11-06T10:17:58.176Z,68.3
2018-11-06T10:18:47.762Z,68.3
2018-11-06T10:19:38.273Z,68.3
2018-11-06T10:20:27.852Z,68.3
2018-11-06T10:21:18.997Z,68.3
2018-11-06T10:22:08.725Z,68.3
2018-11-06T10:22:58.219Z,68.4
2018-11-06T10:23:48.423Z,68.4
2018-11-06T10:24:39.465Z,68.4
2018-11-06T10:25:28.965Z,68.4
2018-11-06T10:26:19.031Z,68.4
2018-11-06T10:27:08.880Z,68.4
2018-11-06T10:27:59.167Z,68.4
2018-11-06T10:28:49.067Z,68.4
2018-11-06T10:29:39.004Z,68.4
2018-11-06T10:30:29.045Z,68.3
2018-11-06T10:31:18.622Z,68.3
2018-11-06T10:32:09.772Z,68.3
2018-11-06T10:32:59.244Z,68.3
2018-11-06T10:33:49.607Z,68.3
2018-11-06T10:34:39.661Z,68.3
2018-11-06T10:35:28.667Z,68.3
2018-11-06T10:36:19.791Z,68.3
2018-11-06T10:37:09.349Z,68.3
2018-11-06T10:37:58.985Z,68.3
2018-11-06T10:38:49.387Z,68.3
2018-11-06T10:39:40.131Z,68.2
2018-11-06T10:40:29.907Z,68.2
2018-11-06T10:41:19.547Z,68.2
2018-11-06T10:42:09.448Z,68.2
2018-11-06T10:42:59.788Z,68.2
2018-11-06T10:43:50.840Z,68.3
2018-11-06T10:44:40.624Z,68.2
2018-11-06T10:45:30.179Z,68.3
2018-11-06T10:46:20.227Z,68.2
2018-11-06T10:47:10.574Z,68.3
2018-11-06T10:47:59.891Z,68.3
2018-11-06T10:48:50.978Z,68.3
2018-11-06T10:49:40.266Z,68.3
2018-11-06T10:50:30.611Z,68.3
2018-11-06T10:51:20.964Z,68.3
2018-11-06T10:52:11.211Z,68.3
2018-11-06T10:53:00.696Z,68.2
2018-11-06T10:53:50.289Z,68.1
2018-11-06T10:54:41.418Z,68.1
2018-11-06T10:55:30.981Z,68.1
2018-11-06T10:56:21.261Z,68.1
2018-11-06T10:57:11.301Z,68.1
2018-11-06T10:58:01.083Z,68.1
2018-11-06T10:58:50.734Z,68.1
2018-11-06T10:59:41.523Z,68.1
2018-11-06T11:00:31.313Z,68.1
2018-11-06T11:01:21.453Z,68.1
2018-11-06T11:02:11.691Z,68.1
2018-11-06T11:03:01.439Z,68.1
2018-11-06T11:03:51.903Z,68.1
2018-11-06T11:04:42.096Z,68.1
2018-11-06T11:05:31.893Z,68.1
2018-11-06T11:06:21.683Z,68.1
2018-11-06T11:07:11.468Z,68.1
2018-11-06T11:08:01.995Z,68.1
2018-11-06T11:08:52.145Z,68.1
2018-11-06T11:09:42.185Z,68
2018-11-06T11:10:32.535Z,68
2018-11-06T11:11:22.052Z,68.1
2018-11-06T11:12:11.239Z,68
2018-11-06T11:13:02.489Z,68
2018-11-06T11:13:51.717Z,68
2018-11-06T11:14:42.288Z,68
2018-11-06T11:15:32.062Z,67.9
2018-11-06T11:16:23.313Z,68
2018-11-06T11:17:12.475Z,68
2018-11-06T11:18:02.652Z,67.9
2018-11-06T11:18:52.589Z,67.9
2018-11-06T11:19:42.359Z,67.9
2018-11-06T11:20:32.754Z,67.9
2018-11-06T11:21:22.786Z,67.9
2018-11-06T11:22:13.116Z,67.9
2018-11-06T11:23:02.685Z,67.9
2018-11-06T11:23:53.346Z,67.9
2018-11-06T11:24:43.302Z,67.9
2018-11-06T11:25:33.590Z,67.8
2018-11-06T11:26:22.944Z,67.8
2018-11-06T11:27:13.891Z,67.8
2018-11-06T11:28:02.979Z,67.8
2018-11-06T11:28:53.212Z,67.8
2018-11-06T11:29:42.804Z,67.8
2018-11-06T11:30:33.166Z,67.8
2018-11-06T11:31:23.851Z,67.8
2018-11-06T11:32:14.108Z,67.8
2018-11-06T11:33:03.951Z,67.8
2018-11-06T11:33:53.935Z,67.7
2018-11-06T11:34:43.169Z,67.6
2018-11-06T11:35:33.301Z,67.6
2018-11-06T11:36:24.142Z,67.6
2018-11-06T11:37:14.171Z,67.4
2018-11-06T11:38:03.799Z,67.4
2018-11-06T11:38:54.037Z,67.4
2018-11-06T11:39:44.546Z,67.3
2018-11-06T11:40:34.323Z,67.3
2018-11-06T11:41:24.535Z,67.3
2018-11-06T11:42:14.805Z,67.1
2018-11-06T11:43:03.824Z,67.1
2018-11-06T11:43:54.463Z,67
2018-11-06T11:44:43.398Z,67
2018-11-06T11:45:34.861Z,67
2018-11-06T11:46:24.708Z,66.9
2018-11-06T11:47:14.363Z,66.9
2018-11-06T11:48:04.748Z,66.9
2018-11-06T11:48:54.783Z,66.9
2018-11-06T11:49:44.545Z,66.8
2018-11-06T11:50:34.610Z,66.8
2018-11-06T11:51:24.473Z,66.6
2018-11-06T11:52:14.988Z,66.4
2018-11-06T11:53:04.813Z,66.4
2018-11-06T11:53:54.739Z,66.3
2018-11-06T11:54:45.213Z,66.2
2018-11-06T11:55:35.555Z,66.1
2018-11-06T11:56:25.324Z,66.1
2018-11-06T11:57:15.335Z,65.9
2018-11-06T11:58:05.230Z,65.8
2018-11-06T11:58:55.822Z,65.8
2018-11-06T11:59:45.962Z,65.6
2018-11-06T12:00:35.707Z,65.4
2018-11-06T12:01:25.684Z,64.9
2018-11-06T12:02:16.549Z,63.9
2018-11-06T12:03:05.610Z,62.8
2018-11-06T12:03:56.157Z,61.8
2018-11-06T12:04:45.719Z,60.8
2018-11-06T12:05:36.291Z,59.9
2018-11-06T12:06:26.345Z,59
2018-11-06T12:07:16.692Z,58.1
2018-11-06T12:08:06.671Z,57.3
2018-11-06T12:08:56.250Z,56.4
2018-11-06T12:09:46.864Z,55.6
2018-11-06T12:10:36.625Z,54.9
2018-11-06T12:11:26.824Z,54.1
2018-11-06T12:12:17.019Z,53.4
2018-11-06T12:13:06.837Z,52.7
2018-11-06T12:13:56.886Z,52
2018-11-06T12:14:46.976Z,51.4
2018-11-06T12:15:36.736Z,50.8
2018-11-06T12:16:26.781Z,50.1
2018-11-06T12:17:17.264Z,49.6
2018-11-06T12:18:07.154Z,48.9
2018-11-06T12:18:57.239Z,48.4
2018-11-06T12:19:47.099Z,47.9
2018-11-06T12:20:37.646Z,47.4
2018-11-06T12:21:27.431Z,46.8
2018-11-06T12:22:16.611Z,46.4
2018-11-06T12:23:07.517Z,45.9
2018-11-06T12:23:57.273Z,45.4
2018-11-06T12:24:47.567Z,44.9
2018-11-06T12:25:38.222Z,44.5
2018-11-06T12:26:28.149Z,44.1
2018-11-06T12:27:17.561Z,43.6
2018-11-06T12:28:07.155Z,43.3
2018-11-06T12:28:57.305Z,42.8
2018-11-06T12:29:48.010Z,42.5
2018-11-06T12:30:37.813Z,42.1
2018-11-06T12:31:28.192Z,41.8
2018-11-06T12:32:18.210Z,41.4
2018-11-06T12:33:08.003Z,41
2018-11-06T12:33:58.365Z,40.7
2018-11-06T12:34:48.490Z,40.4
2018-11-06T12:35:38.473Z,40
2018-11-06T12:36:28.870Z,39.8
2018-11-06T12:37:18.293Z,39.4
2018-11-06T12:38:07.975Z,39.1
2018-11-06T12:38:58.160Z,38.8
2018-11-06T12:39:48.769Z,38.6
2018-11-06T12:40:38.645Z,38.3
2018-11-06T12:41:29.135Z,38
2018-11-06T12:42:18.682Z,37.8
2018-11-06T12:43:09.333Z,37.5
2018-11-06T12:43:58.797Z,37.3
2018-11-06T12:44:48.651Z,37
2018-11-06T12:45:39.222Z,36.8
2018-11-06T12:46:28.992Z,36.5
2018-11-06T12:47:19.051Z,36.3
2018-11-06T12:48:08.598Z,36.1
2018-11-06T12:48:59.244Z,35.8
2018-11-06T12:49:49.025Z,35.6
2018-11-06T12:50:39.094Z,35.4
2018-11-06T12:51:29.624Z,35.2
2018-11-06T12:52:19.433Z,35
2018-11-06T12:53:09.251Z,34.8
2018-11-06T12:53:59.516Z,34.6
2018-11-06T12:54:50.141Z,34.4
2018-11-06T12:55:39.094Z,34.3
2018-11-06T12:56:29.982Z,34.1
2018-11-06T12:57:20.364Z,33.9
2018-11-06T12:58:10.416Z,33.7
2018-11-06T12:58:59.632Z,33.5
2018-11-06T12:59:49.949Z,33.4
2018-11-06T13:00:40.289Z,33.2
2018-11-06T13:01:29.811Z,33.1
2018-11-06T13:02:20.163Z,32.9
2018-11-06T13:03:10.677Z,32.8
2018-11-06T13:04:00.234Z,32.6
2018-11-06T13:04:50.123Z,32.4
2018-11-06T13:05:39.590Z,32.3
2018-11-06T13:06:30.800Z,32.1
2018-11-06T13:07:20.286Z,32
2018-11-06T13:08:10.558Z,31.9
2018-11-06T13:09:00.618Z,31.8
2018-11-06T13:09:50.895Z,31.6
2018-11-06T13:10:41.306Z,31.4
2018-11-06T13:11:30.393Z,31.3
2018-11-06T13:12:21.200Z,31.2
2018-11-06T13:13:10.465Z,31.1
2018-11-06T13:14:00.511Z,30.9
2018-11-06T13:14:50.995Z,30.8
2018-11-06T13:15:42.421Z,30.7
2018-11-06T13:16:31.727Z,30.6
2018-11-06T13:17:21.763Z,30.5
2018-11-06T13:18:11.008Z,30.4
2018-11-06T13:19:01.181Z,30.3
2018-11-06T13:19:51.172Z,30.2
2018-11-06T13:20:41.173Z,30.1
2018-11-06T13:21:31.560Z,29.9
2018-11-06T13:22:21.310Z,29.8
2018-11-06T13:23:11.983Z,29.8
2018-11-06T13:24:01.607Z,29.7
2018-11-06T13:24:51.755Z,29.6
2018-11-06T13:25:42.131Z,29.5
2018-11-06T13:26:32.969Z,29.4
2018-11-06T13:27:22.522Z,29.3
2018-11-06T13:28:11.572Z,29.2
2018-11-06T13:29:02.119Z,29.1
2018-11-06T13:29:52.209Z,29
2018-11-06T13:30:42.190Z,28.9
2018-11-06T13:31:31.995Z,28.8
2018-11-06T13:32:22.411Z,28.8
2018-11-06T13:33:12.402Z,28.7
2018-11-06T13:34:02.242Z,28.6
2018-11-06T13:34:53.080Z,28.5
2018-11-06T13:35:42.454Z,28.4
2018-11-06T13:36:32.897Z,28.4
2018-11-06T13:37:22.499Z,28.3
2018-11-06T13:38:13.359Z,28.3
2018-11-06T13:39:03.131Z,28.2
2018-11-06T13:39:53.171Z,28.1
2018-11-06T13:40:42.933Z,28
2018-11-06T13:41:33.280Z,27.9
2018-11-06T13:42:22.249Z,27.9
2018-11-06T13:44:04.236Z,27.8
2018-11-06T13:44:53.379Z,27.7
2018-11-06T13:45:44.491Z,27.6
2018-11-06T13:46:33.182Z,27.6
2018-11-06T13:47:24.044Z,27.5
2018-11-06T13:48:13.103Z,27.4
2018-11-06T13:49:03.373Z,27.4
2018-11-06T13:49:53.613Z,27.4
2018-11-06T13:50:44.491Z,27.3
2018-11-06T14:07:33.770Z,26.4
2018-11-06T14:08:23.522Z,26.4
2018-11-06T14:09:13.427Z,26.3
2018-11-06T14:10:04.633Z,26.3
2018-11-06T14:10:54.584Z,26.3
2018-11-06T14:11:44.352Z,26.2
2018-11-06T14:12:34.246Z,26.1
2018-11-06T14:13:24.202Z,26.1
2018-11-06T14:14:14.834Z,26.1
2018-11-06T14:15:04.948Z,26.1
2018-11-06T14:15:54.357Z,26
2018-11-06T14:16:44.606Z,26
2018-11-06T14:17:34.220Z,25.9
2018-11-06T14:18:24.943Z,25.9
2018-11-06T14:19:15.333Z,25.9
2018-11-06T14:20:05.577Z,25.8
2018-11-06T14:20:55.136Z,25.8
2018-11-06T14:21:45.443Z,25.8
2018-11-06T14:22:34.989Z,25.8
2018-11-06T14:23:24.622Z,25.7
2018-11-06T14:24:15.864Z,25.7
2018-11-06T14:25:05.352Z,25.6
2018-11-06T14:25:55.672Z,25.6
2018-11-06T14:26:45.310Z,25.6
2018-11-06T14:27:36.471Z,25.6
2018-11-06T14:28:25.857Z,25.5
2018-11-06T14:29:15.753Z,25.5
2018-11-06T14:30:06.315Z,25.5
2018-11-06T14:30:55.579Z,25.4
2018-11-06T14:31:46.089Z,25.4
2018-11-06T14:32:35.612Z,25.4
2018-11-06T14:33:25.385Z,25.4
2018-11-06T14:34:15.278Z,25.3
2018-11-06T14:35:05.683Z,25.3
2018-11-06T14:35:57.354Z,25.3
2018-11-06T14:36:45.702Z,25.3
2018-11-06T14:37:35.682Z,25.3
2018-11-06T14:38:25.912Z,25.2
2018-11-06T14:39:15.879Z,25.1
2018-11-06T14:40:05.460Z,25.1
2018-11-06T14:40:56.799Z,25.1
2018-11-06T14:41:46.354Z,25.1
2018-11-06T14:42:36.206Z,25.1
2018-11-06T14:43:26.773Z,25.1
2018-11-06T14:44:16.231Z,25
2018-11-06T14:45:06.434Z,25
2018-11-06T14:45:57.189Z,24.9
2018-11-06T14:46:46.949Z,24.9
2018-11-06T14:47:37.451Z,24.9
2018-11-06T14:48:27.404Z,24.9
2018-11-06T14:49:17.640Z,24.8
2018-11-06T14:50:07.471Z,24.8
2018-11-06T14:50:57.825Z,24.8
2018-11-06T14:51:47.027Z,24.8
2018-11-06T14:52:37.375Z,24.8
2018-11-06T14:53:27.161Z,24.8
2018-11-06T14:54:17.163Z,24.8
2018-11-06T14:55:07.864Z,24.7
2018-11-06T14:55:58.021Z,24.7
2018-11-06T14:56:48.401Z,24.7
2018-11-06T14:57:38.332Z,24.6
2018-11-06T14:58:27.893Z,24.6
2018-11-06T14:59:18.433Z,24.6
2018-11-06T15:00:08.195Z,24.6
2018-11-06T15:00:58.540Z,24.6
2018-11-06T15:01:48.591Z,24.6
2018-11-06T15:02:38.400Z,24.6
2018-11-06T15:03:27.958Z,24.5
2018-11-06T15:04:17.435Z,24.5
2018-11-06T15:05:08.025Z,24.4
2018-11-06T15:05:58.316Z,24.4
2018-11-06T15:06:48.509Z,24.4
2018-11-06T15:07:38.478Z,24.4
2018-11-06T15:08:28.845Z,24.4
2018-11-06T15:09:18.293Z,24.4
2018-11-06T15:10:08.375Z,24.4
2018-11-06T15:10:57.815Z,24.3
2018-11-06T15:11:48.777Z,24.3
2018-11-06T15:12:38.619Z,24.3
2018-11-06T15:13:29.253Z,24.3
2018-11-06T15:14:18.560Z,24.3
2018-11-06T15:15:09.130Z,24.3
2018-11-06T15:15:58.847Z,24.3
2018-11-06T15:16:48.750Z,24.2
2018-11-06T15:17:39.184Z,24.2
2018-11-06T15:18:29.355Z,24.2
2018-11-06T15:19:19.122Z,24.2
2018-11-06T15:20:09.493Z,24.1
2018-11-06T15:20:59.730Z,24.1
2018-11-06T15:21:49.222Z,24.1
2018-11-06T15:22:39.245Z,24.1
2018-11-06T15:23:29.775Z,24.1
2018-11-06T15:24:19.859Z,24.1
2018-11-06T15:25:09.354Z,24.1
2018-11-06T15:25:59.614Z,24.1
2018-11-06T15:26:49.861Z,24
2018-11-06T15:27:39.845Z,24
2018-11-06T15:28:29.714Z,24
2018-11-06T15:29:19.932Z,24
2018-11-06T15:30:10.709Z,24
2018-11-06T15:30:59.976Z,23.9
2018-11-06T15:31:50.253Z,23.9
2018-11-06T15:32:40.384Z,23.9
2018-11-06T15:33:29.544Z,23.9